Time;durP1;ratioP1;P1;durP2;ratioP2;P2;SDS_P1;SDS_P2;PMS_P1;PMS_P2;Temp;Humidity;BMP_temperature;BMP_pressure;BME280_temperature;BME280_humidity;BME280_pressure;Samples;Min_cycle;Max_cycle;Signal;HPM_P1;HPM_P2
2022/08/14 00:01:16;;;;;;;13.73;9.73;;;;;;;;;;5058354;28;20025;-75
2022/08/14 00:03:42;;;;;;;11.05;9.27;;;;;;;;;;5059291;28;20087;-73
2022/08/14 00:06:08;;;;;;;10.10;8.90;;;;;;;;;;5055924;28;20021;-68
2022/08/14 00:08:34;;;;;;;10.80;9.00;;;;;;;;;;5059238;28;20029;-74
2022/08/14 00:11:00;;;;;;;13.02;8.63;;;;;;;;;;5057641;28;20066;-72
2022/08/14 00:13:28;;;;;;;11.48;8.50;;;;;;;;;;5057209;28;20033;-75
2022/08/14 00:15:55;;;;;;;9.27;8.20;;;;;;;;;;5057975;28;20061;-68
2022/08/14 00:18:22;;;;;;;8.82;7.93;;;;;;;;;;5054383;28;20367;-70
2022/08/14 00:20:48;;;;;;;11.00;7.45;;;;;;;;;;5054773;28;20021;-69
2022/08/14 00:23:15;;;;;;;9.52;7.35;;;;;;;;;;5054068;28;20035;-69
2022/08/14 00:25:42;;;;;;;7.90;7.10;;;;;;;;;;5056747;28;20388;-71
2022/08/14 00:28:10;;;;;;;7.55;6.85;;;;;;;;;;5057113;28;20025;-70
2022/08/14 00:30:36;;;;;;;8.15;7.32;;;;;;;;;;5057288;28;20036;-74
2022/08/14 00:33:03;;;;;;;7.65;6.85;;;;;;;;;;5038893;28;20036;-69
2022/08/14 00:35:30;;;;;;;7.45;6.75;;;;;;;;;;5056660;28;20544;-75
2022/08/14 00:37:56;;;;;;;7.40;6.70;;;;;;;;;;5056007;28;20062;-68
2022/08/14 00:40:22;;;;;;;8.43;7.63;;;;;;;;;;5056355;28;20029;-68
2022/08/14 00:42:48;;;;;;;8.75;7.15;;;;;;;;;;5056507;28;20029;-72
2022/08/14 00:45:15;;;;;;;8.43;7.53;;;;;;;;;;5056595;28;20054;-67
2022/08/14 00:47:42;;;;;;;8.75;7.85;;;;;;;;;;5055081;28;20032;-68
2022/08/14 00:50:10;;;;;;;9.40;8.30;;;;;;;;;;5051444;28;20486;-70
2022/08/14 00:52:36;;;;;;;8.65;7.60;;;;;;;;;;5050535;28;20075;-73
2022/08/14 00:55:04;;;;;;;10.52;8.20;;;;;;;;;;5053030;28;20032;-68
2022/08/14 00:57:31;;;;;;;10.52;7.60;;;;;;;;;;5055330;28;20043;-69
2022/08/14 00:59:59;;;;;;;8.75;7.57;;;;;;;;;;5052362;28;20043;-71
2022/08/14 01:02:25;;;;;;;9.65;7.38;;;;;;;;;;5066169;28;20028;-75
2022/08/14 01:04:53;;;;;;;7.57;6.88;;;;;;;;;;5053418;28;20493;-71
2022/08/14 01:07:20;;;;;;;7.72;6.90;;;;;;;;;;5056601;28;20025;-68
2022/08/14 01:09:50;;;;;;;7.78;6.97;;;;;;;;;;5055469;28;20029;-68
2022/08/14 01:12:17;;;;;;;7.70;6.72;;;;;;;;;;5056744;28;20094;-68
2022/08/14 01:14:43;;;;;;;7.70;6.90;;;;;;;;;;5058180;28;20052;-69
2022/08/14 01:17:09;;;;;;;10.02;7.38;;;;;;;;;;5056396;28;20390;-69
2022/08/14 01:22:20;;;;;;;8.30;7.07;;;;;;;;;;5052084;28;20043;-69
2022/08/14 01:24:47;;;;;;;8.73;7.05;;;;;;;;;;5054672;28;20079;-68
2022/08/14 01:27:17;;;;;;;9.40;6.72;;;;;;;;;;5053080;28;20386;-68
2022/08/14 01:29:50;;;;;;;9.23;7.22;;;;;;;;;;5054967;28;20108;-71
2022/08/14 01:32:20;;;;;;;11.20;7.78;;;;;;;;;;5054897;28;20047;-72
2022/08/14 01:34:51;;;;;;;9.30;7.60;;;;;;;;;;5056941;28;20029;-70
2022/08/14 01:37:17;;;;;;;8.15;7.35;;;;;;;;;;5052055;28;20107;-69
2022/08/14 01:39:43;;;;;;;8.05;7.10;;;;;;;;;;5058092;28;20486;-71
2022/08/14 01:42:10;;;;;;;7.95;7.18;;;;;;;;;;5056776;28;20478;-70
2022/08/14 01:44:37;;;;;;;7.93;7.13;;;;;;;;;;5057724;28;20119;-69
2022/08/14 01:47:12;;;;;;;8.48;7.65;;;;;;;;;;5057440;28;20112;-72
2022/08/14 01:49:38;;;;;;;8.77;7.30;;;;;;;;;;5057831;28;20028;-73
2022/08/14 01:52:05;;;;;;;8.48;7.03;;;;;;;;;;5057813;28;20052;-68
2022/08/14 01:54:31;;;;;;;9.52;7.15;;;;;;;;;;5056991;28;20375;-72
2022/08/14 01:56:57;;;;;;;8.23;7.20;;;;;;;;;;5057544;28;20027;-68
2022/08/14 01:59:28;;;;;;;7.53;6.82;;;;;;;;;;5055941;28;20517;-70
2022/08/14 02:01:55;;;;;;;8.13;7.32;;;;;;;;;;5057951;28;20075;-70
2022/08/14 02:04:23;;;;;;;7.32;6.63;;;;;;;;;;5057278;28;20032;-68
2022/08/14 02:06:49;;;;;;;7.70;7.00;;;;;;;;;;5058819;28;20482;-71
2022/08/14 02:09:16;;;;;;;9.02;8.02;;;;;;;;;;5057917;28;20035;-68
2022/08/14 02:11:42;;;;;;;8.88;7.53;;;;;;;;;;5056808;28;20052;-71
2022/08/14 02:14:10;;;;;;;9.02;7.60;;;;;;;;;;5055643;28;20025;-68
2022/08/14 02:16:38;;;;;;;8.10;7.30;;;;;;;;;;5057066;28;20040;-68
2022/08/14 02:19:25;;;;;;;8.30;7.50;;;;;;;;;;5056290;28;20482;-68
2022/08/14 02:21:53;;;;;;;9.23;7.72;;;;;;;;;;5037541;28;20070;-68
2022/08/14 02:24:20;;;;;;;8.70;7.80;;;;;;;;;;5053895;28;20024;-69
2022/08/14 02:26:47;;;;;;;9.45;7.82;;;;;;;;;;5057486;28;20494;-69
2022/08/14 02:29:16;;;;;;;8.75;7.88;;;;;;;;;;5056899;28;20033;-69
2022/08/14 02:31:43;;;;;;;8.73;7.78;;;;;;;;;;5059444;28;20488;-68
2022/08/14 02:34:12;;;;;;;10.13;7.90;;;;;;;;;;5060257;28;20041;-68
2022/08/14 02:36:39;;;;;;;9.90;8.55;;;;;;;;;;5055751;28;20017;-73
2022/08/14 02:39:06;;;;;;;10.57;7.70;;;;;;;;;;5057278;28;20032;-69
2022/08/14 02:41:33;;;;;;;12.48;8.60;;;;;;;;;;5057755;28;20020;-71
2022/08/14 02:43:59;;;;;;;10.73;8.70;;;;;;;;;;5050878;28;20437;-74
2022/08/14 02:46:25;;;;;;;10.52;8.98;;;;;;;;;;5056366;28;20108;-71
2022/08/14 02:48:51;;;;;;;13.38;9.20;;;;;;;;;;5056578;28;20040;-68
2022/08/14 02:51:17;;;;;;;10.23;8.70;;;;;;;;;;5055759;28;20017;-69
2022/08/14 02:53:44;;;;;;;9.00;8.10;;;;;;;;;;5058420;28;20025;-72
2022/08/14 02:56:14;;;;;;;14.00;8.50;;;;;;;;;;5057605;28;20096;-72
2022/08/14 02:58:42;;;;;;;11.00;8.52;;;;;;;;;;5058378;28;20074;-71
2022/08/14 03:01:09;;;;;;;13.65;8.80;;;;;;;;;;5057965;28;20045;-73
2022/08/14 03:03:36;;;;;;;12.95;9.02;;;;;;;;;;5060348;28;20034;-69
2022/08/14 03:06:06;;;;;;;10.43;8.57;;;;;;;;;;5057570;28;20112;-72
2022/08/14 03:08:33;;;;;;;13.63;8.80;;;;;;;;;;5058880;28;20064;-68
2022/08/14 03:11:00;;;;;;;13.00;8.98;;;;;;;;;;5061219;28;20120;-69
2022/08/14 03:13:27;;;;;;;11.15;8.75;;;;;;;;;;5059867;28;20021;-75
2022/08/14 03:15:53;;;;;;;10.50;8.43;;;;;;;;;;5059635;28;20414;-73
2022/08/14 03:18:23;;;;;;;9.50;8.18;;;;;;;;;;5057438;28;20021;-73
2022/08/14 03:20:50;;;;;;;9.20;8.13;;;;;;;;;;5057676;28;20051;-75
2022/08/14 03:23:17;;;;;;;11.48;8.45;;;;;;;;;;5052645;28;20025;-68
2022/08/14 03:25:43;;;;;;;9.45;8.18;;;;;;;;;;5054176;28;20433;-68
2022/08/14 03:28:09;;;;;;;9.50;8.52;;;;;;;;;;5053332;28;20047;-68
2022/08/14 03:30:37;;;;;;;10.82;9.27;;;;;;;;;;5054320;28;20499;-68
2022/08/14 03:33:04;;;;;;;10.52;8.32;;;;;;;;;;5054666;28;20029;-68
2022/08/14 03:35:30;;;;;;;10.10;9.02;;;;;;;;;;5052707;28;20119;-69
2022/08/14 03:38:04;;;;;;;11.15;9.18;;;;;;;;;;5054475;28;20025;-68
2022/08/14 03:40:30;;;;;;;9.48;8.48;;;;;;;;;;5053734;28;20033;-68
2022/08/14 03:42:56;;;;;;;9.07;8.10;;;;;;;;;;5058993;28;20021;-74
2022/08/14 03:45:23;;;;;;;11.15;8.50;;;;;;;;;;5056930;28;20040;-68
2022/08/14 03:47:49;;;;;;;10.65;7.82;;;;;;;;;;5054067;28;20056;-67
2022/08/14 03:50:15;;;;;;;10.07;7.85;;;;;;;;;;5051478;28;20028;-69
2022/08/14 03:52:43;;;;;;;9.63;8.15;;;;;;;;;;5053890;28;20096;-73
2022/08/14 03:55:11;;;;;;;14.82;8.30;;;;;;;;;;5053035;28;20033;-68
2022/08/14 03:57:37;;;;;;;9.07;8.05;;;;;;;;;;5054311;28;20517;-68
2022/08/14 04:00:09;;;;;;;9.77;8.77;;;;;;;;;;5054783;28;20052;-67
2022/08/14 04:02:37;;;;;;;10.35;8.52;;;;;;;;;;5055910;28;20029;-68
2022/08/14 04:05:03;;;;;;;9.98;7.97;;;;;;;;;;5056354;28;20082;-74
2022/08/14 04:07:30;;;;;;;10.07;7.75;;;;;;;;;;5059667;28;20021;-69
2022/08/14 04:09:56;;;;;;;8.50;7.60;;;;;;;;;;5038747;28;20080;-75
2022/08/14 04:12:22;;;;;;;8.63;7.70;;;;;;;;;;5050261;28;20033;-69
2022/08/14 04:14:48;;;;;;;9.68;7.75;;;;;;;;;;5053428;28;20028;-68
2022/08/14 04:17:14;;;;;;;10.40;7.97;;;;;;;;;;5054050;28;20025;-69
2022/08/14 04:19:40;;;;;;;10.32;8.07;;;;;;;;;;5052640;28;20029;-68
2022/08/14 04:22:06;;;;;;;8.77;7.82;;;;;;;;;;5053703;28;20036;-68
2022/08/14 04:24:32;;;;;;;9.10;8.13;;;;;;;;;;5054281;28;20029;-68
2022/08/14 04:26:58;;;;;;;11.75;7.55;;;;;;;;;;5053221;28;20027;-68
2022/08/14 04:29:24;;;;;;;8.02;7.22;;;;;;;;;;5053500;28;20029;-68
2022/08/14 04:31:50;;;;;;;8.40;7.25;;;;;;;;;;5052454;28;20536;-68
2022/08/14 04:34:16;;;;;;;7.88;7.07;;;;;;;;;;5053892;28;20037;-68
2022/08/14 04:45:13;;;;;;;9.20;6.93;;;;;;;;;;4972399;28;20520;-73
2022/08/14 04:50:23;;;;;;;9.25;7.35;;;;;;;;;;4975369;28;20073;-72
2022/08/14 04:52:50;;;;;;;10.43;7.07;;;;;;;;;;4971869;28;20039;-72
2022/08/14 04:55:16;;;;;;;8.32;7.15;;;;;;;;;;4972892;28;20043;-70
2022/08/14 04:57:42;;;;;;;8.82;7.10;;;;;;;;;;4956702;28;20026;-73
2022/08/14 05:00:08;;;;;;;10.25;7.75;;;;;;;;;;4971539;28;20037;-69
2022/08/14 05:02:35;;;;;;;8.93;7.10;;;;;;;;;;4973466;28;20018;-68
2022/08/14 05:05:01;;;;;;;8.50;7.25;;;;;;;;;;4971349;28;20043;-68
2022/08/14 05:07:27;;;;;;;8.55;7.50;;;;;;;;;;4974289;28;20488;-68
2022/08/14 05:09:53;;;;;;;9.88;7.75;;;;;;;;;;4972511;28;20384;-69
2022/08/14 05:12:19;;;;;;;8.38;7.13;;;;;;;;;;4974103;28;20113;-73
2022/08/14 05:14:45;;;;;;;10.68;7.45;;;;;;;;;;4972632;28;20047;-72
2022/08/14 05:17:12;;;;;;;9.23;7.10;;;;;;;;;;4983255;28;20391;-71
2022/08/14 05:19:38;;;;;;;9.07;7.35;;;;;;;;;;5055140;28;20048;-68
2022/08/14 05:22:04;;;;;;;10.50;7.60;;;;;;;;;;5059108;28;20544;-75
2022/08/14 05:24:30;;;;;;;8.85;7.47;;;;;;;;;;5065543;28;20053;-73
2022/08/14 05:27:19;;;;;;;8.65;7.55;;;;;;;;;;5059668;28;20509;-76
2022/08/14 05:30:22;;;;;;;8.10;7.30;;;;;;;;;;5038557;28;20026;-76
2022/08/14 05:32:50;;;;;;;9.20;7.28;;;;;;;;;;5068767;28;20037;-75
2022/08/14 05:35:18;;;;;;;9.57;7.03;;;;;;;;;;5056336;28;20075;-73
2022/08/14 05:37:44;;;;;;;9.57;7.47;;;;;;;;;;5054561;28;20562;-74
2022/08/14 05:40:39;;;;;;;8.15;7.25;;;;;;;;;;5075845;28;20040;-81
2022/08/14 05:43:23;;;;;;;10.75;7.60;;;;;;;;;;5060807;28;20041;-72
2022/08/14 05:45:49;;;;;;;8.60;7.05;;;;;;;;;;5059557;28;20044;-72
2022/08/14 05:48:15;;;;;;;10.23;7.43;;;;;;;;;;5058402;28;20055;-72
2022/08/14 05:50:42;;;;;;;10.27;7.68;;;;;;;;;;5058474;28;20025;-72
2022/08/14 05:53:09;;;;;;;13.00;7.72;;;;;;;;;;5058536;28;20037;-72
2022/08/14 05:55:35;;;;;;;8.52;6.97;;;;;;;;;;5043151;28;20095;-72
2022/08/14 05:58:04;;;;;;;9.98;7.40;;;;;;;;;;5057106;28;20053;-72
2022/08/14 06:00:35;;;;;;;10.38;7.30;;;;;;;;;;5057187;28;20021;-74
2022/08/14 06:03:02;;;;;;;8.35;7.07;;;;;;;;;;5052034;28;20026;-74
2022/08/14 06:05:33;;;;;;;9.00;7.25;;;;;;;;;;5064335;28;20040;-76
2022/08/14 06:08:01;;;;;;;8.45;7.30;;;;;;;;;;5067561;28;20060;-75
2022/08/14 06:10:30;;;;;;;10.38;7.38;;;;;;;;;;5058783;28;20394;-78
2022/08/14 06:12:57;;;;;;;8.57;7.57;;;;;;;;;;5057118;28;20029;-75
2022/08/14 06:15:24;;;;;;;9.68;7.00;;;;;;;;;;5052494;28;20037;-76
2022/08/14 06:17:52;;;;;;;8.75;6.57;;;;;;;;;;5056320;28;20048;-68
2022/08/14 06:20:19;;;;;;;8.25;6.68;;;;;;;;;;5053455;28;20705;-72
2022/08/14 06:22:46;;;;;;;8.77;6.88;;;;;;;;;;5061327;28;20025;-75
2022/08/14 06:25:13;;;;;;;8.35;6.60;;;;;;;;;;5061526;28;20025;-71
2022/08/14 06:27:41;;;;;;;8.32;6.70;;;;;;;;;;5059844;28;20032;-80
2022/08/14 06:30:22;;;;;;;7.95;6.72;;;;;;;;;;5058877;28;20108;-80
2022/08/14 06:32:49;;;;;;;8.77;6.75;;;;;;;;;;5046394;28;20043;-78
2022/08/14 06:35:22;;;;;;;7.97;6.80;;;;;;;;;;5052417;28;20048;-81
2022/08/14 06:37:48;;;;;;;7.10;6.13;;;;;;;;;;5054737;28;20053;-76
2022/08/14 06:40:16;;;;;;;10.02;6.60;;;;;;;;;;5050389;28;20453;-76
2022/08/14 06:42:42;;;;;;;7.50;6.80;;;;;;;;;;5052230;28;20082;-79
2022/08/14 06:45:09;;;;;;;7.50;6.57;;;;;;;;;;5053889;28;20455;-76
2022/08/14 06:47:35;;;;;;;7.35;6.30;;;;;;;;;;5058030;28;20071;-76
2022/08/14 06:50:05;;;;;;;7.80;6.60;;;;;;;;;;5052221;28;20021;-73
2022/08/14 06:52:31;;;;;;;6.88;6.00;;;;;;;;;;5055139;28;20028;-74
2022/08/14 06:54:58;;;;;;;9.82;6.28;;;;;;;;;;5054327;28;20033;-74
2022/08/14 06:57:25;;;;;;;7.82;6.30;;;;;;;;;;5053094;28;20108;-72
2022/08/14 06:59:51;;;;;;;8.23;6.53;;;;;;;;;;5053251;28;20028;-73
2022/08/14 07:07:46;;;;;;;7.07;5.78;;;;;;;;;;5035570;28;20041;-70
2022/08/14 07:10:13;;;;;;;8.02;5.97;;;;;;;;;;5053492;28;20052;-72
2022/08/14 07:12:39;;;;;;;9.18;6.53;;;;;;;;;;5053026;28;20021;-73
2022/08/14 07:15:05;;;;;;;8.95;6.82;;;;;;;;;;5054626;28;20063;-72
2022/08/14 07:17:32;;;;;;;9.52;6.00;;;;;;;;;;5058737;28;20079;-77
2022/08/14 07:19:58;;;;;;;9.98;6.47;;;;;;;;;;5051218;28;20052;-74
2022/08/14 07:22:24;;;;;;;8.93;5.97;;;;;;;;;;5053884;28;20021;-75
2022/08/14 07:24:50;;;;;;;7.28;6.22;;;;;;;;;;5051113;28;20025;-75
2022/08/14 07:27:16;;;;;;;18.38;6.50;;;;;;;;;;5052564;28;20107;-74
2022/08/14 07:29:42;;;;;;;6.55;5.70;;;;;;;;;;5050405;28;20021;-75
2022/08/14 07:32:10;;;;;;;8.43;5.75;;;;;;;;;;5053955;28;20406;-77
2022/08/14 07:34:36;;;;;;;7.80;6.30;;;;;;;;;;5053548;28;20029;-75
2022/08/14 07:37:02;;;;;;;7.75;5.85;;;;;;;;;;5036651;28;20033;-70
2022/08/14 07:39:28;;;;;;;7.80;6.35;;;;;;;;;;5051737;28;20474;-81
2022/08/14 07:41:54;;;;;;;12.13;6.40;;;;;;;;;;5034216;28;20448;-86
2022/08/14 07:44:20;;;;;;;9.65;6.47;;;;;;;;;;5050040;28;20033;-85
2022/08/14 07:46:46;;;;;;;7.85;6.68;;;;;;;;;;5048160;28;20108;-83
2022/08/14 07:49:13;;;;;;;8.85;6.45;;;;;;;;;;5040413;28;20139;-80
2022/08/14 07:51:39;;;;;;;8.88;6.03;;;;;;;;;;5049137;28;20160;-83
2022/08/14 07:54:06;;;;;;;7.00;6.30;;;;;;;;;;5032438;28;20124;-76
2022/08/14 07:56:32;;;;;;;14.50;6.32;;;;;;;;;;5057397;28;20029;-76
2022/08/14 07:58:58;;;;;;;6.93;6.13;;;;;;;;;;5052917;28;20033;-76
2022/08/14 08:01:25;;;;;;;7.85;5.80;;;;;;;;;;5051571;28;20060;-81
2022/08/14 08:03:51;;;;;;;12.93;6.63;;;;;;;;;;5050518;28;20021;-85
2022/08/14 08:06:17;;;;;;;11.18;6.25;;;;;;;;;;5051495;28;20048;-74
2022/08/14 08:08:45;;;;;;;11.55;6.68;;;;;;;;;;5051580;28;20127;-74
2022/08/14 08:11:11;;;;;;;9.10;6.05;;;;;;;;;;5052189;28;20096;-77
2022/08/14 08:13:40;;;;;;;16.73;6.60;;;;;;;;;;5050870;28;20154;-74
2022/08/14 08:16:07;;;;;;;11.73;6.15;;;;;;;;;;5051885;28;20077;-72
2022/08/14 08:18:33;;;;;;;14.13;6.22;;;;;;;;;;5050588;28;20021;-70
2022/08/14 08:20:59;;;;;;;7.68;5.40;;;;;;;;;;5047022;28;20472;-78
2022/08/14 08:23:28;;;;;;;9.80;5.82;;;;;;;;;;5050694;28;20382;-76
2022/08/14 08:25:54;;;;;;;8.80;5.63;;;;;;;;;;5054055;28;20029;-70
2022/08/14 08:28:25;;;;;;;10.07;6.70;;;;;;;;;;5049065;28;20032;-71
2022/08/14 08:30:53;;;;;;;14.30;6.55;;;;;;;;;;5049853;28;20115;-77
2022/08/14 08:33:20;;;;;;;9.32;6.18;;;;;;;;;;5052759;28;20765;-69
2022/08/14 08:35:46;;;;;;;7.53;5.97;;;;;;;;;;5049866;28;20406;-75
2022/08/14 08:38:18;;;;;;;9.27;6.03;;;;;;;;;;5047964;28;20048;-74
2022/08/14 08:40:46;;;;;;;7.97;5.80;;;;;;;;;;5049189;28;20292;-78
2022/08/14 08:43:18;;;;;;;7.78;5.88;;;;;;;;;;5051491;28;20086;-90
2022/08/14 08:45:44;;;;;;;9.52;6.10;;;;;;;;;;5031370;28;20049;-81
2022/08/14 08:48:10;;;;;;;8.65;6.30;;;;;;;;;;5048856;28;21357;-87
2022/08/14 08:50:38;;;;;;;8.70;6.20;;;;;;;;;;5043996;28;20095;-76
2022/08/14 08:53:06;;;;;;;8.38;5.85;;;;;;;;;;5047705;28;20386;-76
2022/08/14 08:55:43;;;;;;;8.98;6.35;;;;;;;;;;5049157;28;20064;-78
2022/08/14 08:58:10;;;;;;;10.80;6.70;;;;;;;;;;5049413;28;20538;-80
2022/08/14 09:00:37;;;;;;;12.00;6.53;;;;;;;;;;5014038;28;20017;-76
2022/08/14 09:03:06;;;;;;;7.47;6.38;;;;;;;;;;5048476;28;20120;-84
2022/08/14 09:05:33;;;;;;;7.28;6.22;;;;;;;;;;5051763;28;20053;-81
2022/08/14 09:08:13;;;;;;;7.63;6.63;;;;;;;;;;5050729;28;20075;-74
2022/08/14 09:10:39;;;;;;;7.90;5.93;;;;;;;;;;5048648;28;20029;-79
2022/08/14 09:13:05;;;;;;;9.75;6.60;;;;;;;;;;5047801;28;20031;-72
2022/08/14 09:15:31;;;;;;;7.65;6.85;;;;;;;;;;5047725;28;20087;-76
2022/08/14 09:17:59;;;;;;;9.98;6.55;;;;;;;;;;5046473;28;20029;-85
2022/08/14 09:20:25;;;;;;;12.13;7.15;;;;;;;;;;5049088;28;20494;-71
2022/08/14 09:22:52;;;;;;;9.57;6.50;;;;;;;;;;5049481;28;20025;-70
2022/08/14 09:25:18;;;;;;;10.55;6.55;;;;;;;;;;5031202;28;20025;-69
2022/08/14 09:27:44;;;;;;;7.43;6.38;;;;;;;;;;5051684;28;20092;-73
2022/08/14 09:30:10;;;;;;;7.85;6.80;;;;;;;;;;5049990;28;20421;-74
2022/08/14 09:32:52;;;;;;;8.30;6.78;;;;;;;;;;5049825;28;20140;-69
2022/08/14 09:35:24;;;;;;;8.23;6.70;;;;;;;;;;5050738;28;20037;-68
2022/08/14 09:38:09;;;;;;;13.80;7.05;;;;;;;;;;5048847;28;20107;-79
2022/08/14 09:40:42;;;;;;;12.20;7.10;;;;;;;;;;5049179;28;20108;-72
2022/08/14 09:43:09;;;;;;;;;;;;;;;;;;5049791;28;20104;-71
2022/08/14 09:45:48;;;;;;;11.85;7.10;;;;;;;;;;5048691;28;19916;-74
2022/08/14 09:48:17;;;;;;;8.13;6.50;;;;;;;;;;5047630;28;20018;-78
2022/08/14 09:50:45;;;;;;;9.63;7.15;;;;;;;;;;5047696;28;20103;-82
2022/08/14 09:53:15;;;;;;;9.98;7.05;;;;;;;;;;5046732;28;20021;-86
2022/08/14 09:55:41;;;;;;;10.05;7.20;;;;;;;;;;5051849;28;20040;-72
2022/08/14 09:58:10;;;;;;;9.48;7.28;;;;;;;;;;5052206;28;20098;-78
2022/08/14 10:00:49;;;;;;;12.82;7.43;;;;;;;;;;5047869;28;20067;-72
2022/08/14 10:03:35;;;;;;;8.80;7.32;;;;;;;;;;5049014;28;20033;-76
2022/08/14 10:06:04;;;;;;;8.82;6.82;;;;;;;;;;5050350;28;20021;-70
2022/08/14 10:08:40;;;;;;;11.25;6.93;;;;;;;;;;5052796;28;20032;-74
2022/08/14 10:11:18;;;;;;;12.63;7.72;;;;;;;;;;5051068;28;20160;-75
2022/08/14 10:13:44;;;;;;;13.18;7.63;;;;;;;;;;5051773;28;20044;-74
2022/08/14 10:16:10;;;;;;;9.10;7.90;;;;;;;;;;5050688;28;20578;-76
2022/08/14 10:18:36;;;;;;;10.55;7.78;;;;;;;;;;5057616;28;20032;-77
2022/08/14 10:21:04;;;;;;;10.43;7.43;;;;;;;;;;5054513;28;20037;-83
2022/08/14 10:23:48;;;;;;;9.25;7.25;;;;;;;;;;5052536;28;20542;-76
2022/08/14 10:26:16;;;;;;;12.27;7.55;;;;;;;;;;5048896;28;20037;-75
2022/08/14 10:28:44;;;;;;;12.57;7.50;;;;;;;;;;5052226;28;20534;-79
2022/08/14 10:31:16;;;;;;;9.27;7.18;;;;;;;;;;5050301;28;20037;-77
2022/08/14 10:33:42;;;;;;;9.00;7.47;;;;;;;;;;5051413;28;20191;-75
2022/08/14 10:36:09;;;;;;;9.68;7.97;;;;;;;;;;5051188;28;20047;-70
2022/08/14 10:38:35;;;;;;;13.30;7.65;;;;;;;;;;5050701;28;20033;-79
2022/08/14 10:41:15;;;;;;;12.35;7.53;;;;;;;;;;5051616;28;20425;-72
2022/08/14 10:43:42;;;;;;;43.33;9.65;;;;;;;;;;5033343;28;20048;-92
2022/08/14 10:46:15;;;;;;;8.85;7.28;;;;;;;;;;5051564;28;20378;-79
2022/08/14 10:48:41;;;;;;;;;;;;;;;;;;5052848;28;20021;-83
2022/08/14 10:51:08;;;;;;;12.32;7.40;;;;;;;;;;5051049;28;19923;-81
2022/08/14 10:53:35;;;;;;;29.40;8.95;;;;;;;;;;5050907;28;20447;-75
2022/08/14 10:56:05;;;;;;;12.27;7.82;;;;;;;;;;5050989;28;20592;-76
2022/08/14 10:58:32;;;;;;;15.32;7.97;;;;;;;;;;5045318;28;20100;-78
2022/08/14 11:00:59;;;;;;;44.47;9.20;;;;;;;;;;5050825;28;20021;-75
2022/08/14 11:03:36;;;;;;;60.88;10.57;;;;;;;;;;5050370;28;20475;-76
2022/08/14 11:06:13;;;;;;;148.07;14.07;;;;;;;;;;5048414;28;20116;-79
2022/08/14 11:08:39;;;;;;;17.10;7.65;;;;;;;;;;5048620;28;20500;-80
2022/08/14 11:11:05;;;;;;;10.98;7.03;;;;;;;;;;5046991;28;21644;-75
2022/08/14 11:13:32;;;;;;;13.07;7.60;;;;;;;;;;5049822;28;20102;-71
2022/08/14 11:16:02;;;;;;;11.07;7.45;;;;;;;;;;5047142;28;20397;-79
2022/08/14 11:18:29;;;;;;;12.32;7.63;;;;;;;;;;5049522;28;20100;-75
2022/08/14 11:20:58;;;;;;;9.20;7.13;;;;;;;;;;5050219;28;20029;-71
2022/08/14 11:23:31;;;;;;;14.05;7.85;;;;;;;;;;5050694;28;20020;-76
2022/08/14 11:25:58;;;;;;;19.05;8.15;;;;;;;;;;5051595;28;20025;-77
2022/08/14 11:28:25;;;;;;;20.50;9.55;;;;;;;;;;5050734;28;20029;-81
2022/08/14 11:30:55;;;;;;;12.57;7.03;;;;;;;;;;5052531;28;20033;-71
2022/08/14 11:33:27;;;;;;;11.25;7.38;;;;;;;;;;5049004;28;20554;-72
2022/08/14 11:35:53;;;;;;;8.68;6.40;;;;;;;;;;5046817;28;20123;-83
2022/08/14 11:38:20;;;;;;;10.88;6.10;;;;;;;;;;5050178;28;20024;-79
2022/08/14 11:40:46;;;;;;;18.48;7.10;;;;;;;;;;5049924;28;20048;-81
2022/08/14 11:43:12;;;;;;;86.40;11.13;;;;;;;;;;5046810;28;20052;-79
2022/08/14 11:45:39;;;;;;;17.70;6.90;;;;;;;;;;5050104;28;20110;-70
2022/08/14 11:48:22;;;;;;;14.32;7.32;;;;;;;;;;5045954;28;20024;-70
2022/08/14 11:50:49;;;;;;;9.20;6.80;;;;;;;;;;5049476;28;20068;-69
2022/08/14 11:53:29;;;;;;;9.23;6.55;;;;;;;;;;5048327;28;20037;-70
2022/08/14 11:56:05;;;;;;;10.13;6.78;;;;;;;;;;5049385;28;20051;-82
2022/08/14 11:58:32;;;;;;;13.73;7.03;;;;;;;;;;5048167;28;20025;-72
2022/08/14 12:01:00;;;;;;;22.98;7.47;;;;;;;;;;5044409;28;20107;-82
2022/08/14 12:03:35;;;;;;;11.75;6.30;;;;;;;;;;5051443;28;20025;-67
2022/08/14 12:06:20;;;;;;;16.10;7.03;;;;;;;;;;5050194;28;20115;-67
2022/08/14 12:08:49;;;;;;;15.57;7.20;;;;;;;;;;5052761;28;20370;-69
2022/08/14 12:11:15;;;;;;;12.73;7.65;;;;;;;;;;5053622;28;20037;-73
2022/08/14 12:13:42;;;;;;;22.35;7.78;;;;;;;;;;5051700;28;20020;-76
2022/08/14 12:16:09;;;;;;;13.07;7.05;;;;;;;;;;5050483;28;20041;-73
2022/08/14 12:18:37;;;;;;;9.48;6.88;;;;;;;;;;5050782;28;20037;-73
2022/08/14 12:21:16;;;;;;;9.15;7.38;;;;;;;;;;5051318;28;20548;-74
2022/08/14 12:23:42;;;;;;;16.30;7.60;;;;;;;;;;5052026;28;20037;-75
2022/08/14 12:26:10;;;;;;;8.15;7.07;;;;;;;;;;5050558;28;20447;-68
2022/08/14 12:28:38;;;;;;;18.33;7.65;;;;;;;;;;5050201;28;20039;-86
2022/08/14 12:31:18;;;;;;;9.88;6.57;;;;;;;;;;5049316;28;20017;-76
2022/08/14 12:33:55;;;;;;;12.45;6.65;;;;;;;;;;5044435;28;20029;-77
2022/08/14 12:36:21;;;;;;;8.02;6.65;;;;;;;;;;5048354;28;20037;-74
2022/08/14 12:38:49;;;;;;;10.68;7.18;;;;;;;;;;5049476;28;20043;-75
2022/08/14 12:41:20;;;;;;;8.20;6.60;;;;;;;;;;5049977;28;20332;-71
2022/08/14 12:43:50;;;;;;;13.02;6.90;;;;;;;;;;5045777;28;20411;-75
2022/08/14 12:46:23;;;;;;;8.90;6.93;;;;;;;;;;5048624;28;20112;-69
2022/08/14 12:48:50;;;;;;;10.77;7.00;;;;;;;;;;5043068;28;20510;-71
2022/08/14 12:51:20;;;;;;;8.27;6.70;;;;;;;;;;5048364;28;20029;-77
2022/08/14 12:53:47;;;;;;;9.48;6.78;;;;;;;;;;5044281;28;20453;-73
2022/08/14 12:56:17;;;;;;;8.18;7.00;;;;;;;;;;5046370;28;20033;-81
2022/08/14 12:58:48;;;;;;;8.55;6.40;;;;;;;;;;5047993;28;20426;-84
2022/08/14 13:01:19;;;;;;;11.57;7.13;;;;;;;;;;5048144;28;20442;-68
2022/08/14 13:03:46;;;;;;;9.43;6.75;;;;;;;;;;5045910;28;20260;-75
2022/08/14 13:06:13;;;;;;;10.35;6.75;;;;;;;;;;5047079;28;20474;-84
2022/08/14 13:08:41;;;;;;;11.88;6.53;;;;;;;;;;5047240;28;20033;-72
2022/08/14 13:11:10;;;;;;;8.80;6.40;;;;;;;;;;5045994;28;20098;-67
2022/08/14 13:13:38;;;;;;;9.18;6.15;;;;;;;;;;5047300;28;20035;-67
2022/08/14 13:16:05;;;;;;;15.23;6.93;;;;;;;;;;5044946;28;20037;-72
2022/08/14 13:18:32;;;;;;;13.40;6.97;;;;;;;;;;5044462;28;20025;-68
2022/08/14 13:21:00;;;;;;;16.92;6.75;;;;;;;;;;5050181;28;20036;-80
2022/08/14 13:23:27;;;;;;;12.30;7.35;;;;;;;;;;5045466;28;20023;-75
2022/08/14 13:25:54;;;;;;;10.77;7.00;;;;;;;;;;5049211;28;20406;-81
2022/08/14 13:28:26;;;;;;;11.32;7.07;;;;;;;;;;5050877;28;20028;-79
2022/08/14 13:30:52;;;;;;;9.95;6.38;;;;;;;;;;5034758;28;20040;-75
2022/08/14 13:33:20;;;;;;;13.52;7.50;;;;;;;;;;5051228;28;20021;-79
2022/08/14 13:35:48;;;;;;;20.08;7.90;;;;;;;;;;5052725;28;20090;-80
2022/08/14 13:38:20;;;;;;;32.63;9.93;;;;;;;;;;5054441;28;20382;-85
2022/08/14 13:40:54;;;;;;;88.07;16.15;;;;;;;;;;5054669;28;20040;-77
2022/08/14 13:43:21;;;;;;;20.00;7.85;;;;;;;;;;5046829;28;20025;-79
2022/08/14 13:45:47;;;;;;;93.10;13.45;;;;;;;;;;5052791;28;20057;-82
2022/08/14 13:48:14;;;;;;;18.67;8.05;;;;;;;;;;5053673;28;20526;-82
2022/08/14 13:50:43;;;;;;;29.98;8.55;;;;;;;;;;5055479;28;20036;-82
2022/08/14 13:53:13;;;;;;;16.27;6.80;;;;;;;;;;5053478;28;20086;-80
2022/08/14 13:55:39;;;;;;;25.25;7.88;;;;;;;;;;5056461;28;20024;-81
2022/08/14 13:58:06;;;;;;;15.43;7.25;;;;;;;;;;5054507;28;20424;-82
2022/08/14 14:00:33;;;;;;;21.92;8.05;;;;;;;;;;5058389;28;20077;-77
2022/08/14 14:02:59;;;;;;;14.75;6.85;;;;;;;;;;5055815;28;20025;-78
2022/08/14 14:05:25;;;;;;;15.07;7.00;;;;;;;;;;5056896;28;20032;-79
2022/08/14 14:07:52;;;;;;;10.55;6.47;;;;;;;;;;5056531;28;20021;-86
2022/08/14 14:10:20;;;;;;;7.45;6.00;;;;;;;;;;5056695;28;20021;-87
2022/08/14 14:12:47;;;;;;;12.02;6.80;;;;;;;;;;5059254;28;20131;-86
2022/08/14 14:15:15;;;;;;;8.00;6.47;;;;;;;;;;5040482;28;20167;-81
2022/08/14 14:17:41;;;;;;;9.20;6.05;;;;;;;;;;5050470;28;20026;-80
2022/08/14 14:20:11;;;;;;;6.53;5.80;;;;;;;;;;5038853;28;20103;-86
2022/08/14 14:22:44;;;;;;;8.10;6.00;;;;;;;;;;5055203;28;20029;-85
2022/08/14 14:25:13;;;;;;;11.80;6.95;;;;;;;;;;5055833;28;20032;-75
2022/08/14 14:27:41;;;;;;;9.63;6.68;;;;;;;;;;5054019;28;20386;-75
2022/08/14 14:30:08;;;;;;;10.75;6.72;;;;;;;;;;5055448;28;20112;-75
2022/08/14 14:32:40;;;;;;;15.88;7.53;;;;;;;;;;5059672;28;20078;-78
2022/08/14 14:35:09;;;;;;;15.82;6.97;;;;;;;;;;5050404;28;20503;-71
2022/08/14 14:37:37;;;;;;;16.05;6.85;;;;;;;;;;5052638;28;20033;-72
2022/08/14 14:40:05;;;;;;;12.32;7.05;;;;;;;;;;5053971;28;20039;-76
2022/08/14 14:42:33;;;;;;;10.32;6.68;;;;;;;;;;5046420;28;20092;-67
2022/08/14 14:45:19;;;;;;;8.52;5.90;;;;;;;;;;5041366;28;20079;-80
2022/08/14 14:47:47;;;;;;;7.07;6.13;;;;;;;;;;5042763;28;20069;-77
2022/08/14 14:50:13;;;;;;;7.60;5.78;;;;;;;;;;5042796;28;20037;-75
2022/08/14 14:52:39;;;;;;;7.30;6.50;;;;;;;;;;5042417;28;20032;-77
2022/08/14 14:55:06;;;;;;;7.10;6.20;;;;;;;;;;5040481;28;20029;-77
2022/08/14 14:57:32;;;;;;;8.73;7.05;;;;;;;;;;5042386;28;20052;-76
2022/08/14 14:59:58;;;;;;;9.73;5.88;;;;;;;;;;5046896;28;20132;-72
2022/08/14 15:02:30;;;;;;;9.45;6.43;;;;;;;;;;5050840;28;20059;-77
2022/08/14 15:04:56;;;;;;;7.13;5.85;;;;;;;;;;5053393;28;20518;-76